Lander, WY

6:16 PM MST on December 22, 2014 (GMT -0700)
Riverton Regional | Change Station
CLOSE
Current Station
Airport
Location: Riverton,
Elevation: 5525 ft
Nearby Weather Stations

Elev 5525 ft 43.06 °N, 108.46 °W | Updated 23 minutes ago

Overcast
Overcast
29 °F
Feels Like 18 °F
N
14
Wind Variable Wind from NNW

Today
High -- | Low -- °F
--% Chance of Precip.
Yesterday
High -- | Low -- °F
Precip. -- in
7:42 AM 4:44 PM
New Moon, 1% visible
Pressure 30.01 in
Visibility 10.0 miles
Clouds Mostly Cloudy 7500 ft
Overcast 10000 ft
Windchill 18 °F
Dew Point 19 °F
Humidity 67%
Rainfall 0.02 in
Snow Depth Not available.
UV 0 out of 12
Pollen .10 out of 12
Air Quality Not available.
Flu Activity Not available.
METAR KRIW 230053Z AUTO 33012KT 10SM BKN075 OVC100 M02/M07 A2992 RMK AO2 SNB01E10 SLP162 P0000 T10171072

More Conditions Fewer Conditions

Pressure 30.01 in
Visibility 10.0 miles
Clouds Mostly Cloudy 7500 ft
Overcast 10000 ft
Windchill 18 °F
Dew Point 19 °F
Humidity 67%
Rainfall 0.02 in
Snow Depth Not available.
UV 0 out of 12
Pollen .10 out of 12
Air Quality Not available.
Flu Activity Not available.
METAR KRIW 230053Z AUTO 33012KT 10SM BKN075 OVC100 M02/M07 A2992 RMK AO2 SNB01E10 SLP162 P0000 T10171072

More Conditions Fewer Conditions

10-Day Weather Forecast

Almanac

Astronomy

Dec. 22, 2014 Rise Set
Actual Time
Civil Twilight
Nautical Twilight
Astronomical Twilight
Moon
Length of Visible Light
Length of Day
Tomorrow will be .
, % of the Moon is Illuminated

Today's Extremes

State Highs State Lows

Community

WunderPhotos

Upload Photos

1,779,745 photos uploaded!

WunderBlogs® & News

Nearby

Air Quality

  Air Quality AQ Index Pollutant
Not available.

Snow Depth

Station Depth Elevation

Earthquake Activity

City Distance Mag. Time & Date
Minimum magnitude displayed is 2.5.

Coastal Water Temperatures

Place Temperature

Nearby Weather Stations